Details From CYZH - SLAVE LAKE
To PAGY - SKAGWAY
Flight Number -
Tags generated
Created
Modified
Stats Distance 739 nm / 1,368 km
Max Altitude 34,000 ft / 10,363 m
Waypoints 5
Social Downloads 7
Likes 0
Share

Download

Looking for another format? Having issues loading an existing format? Contact us
Advertisement - Login to hide

Notes

Basic altitude profile: - Ascent Rate: 2500ft/min - Ascent Speed: 250kts - Cruise Altitude: 35000ft - Cruise Speed: 420kts - Descent Rate: 1500ft/min - Descent Speed: 250kts Options: - Use NATs: yes - Use PACOTS: yes - Use low airways: yes - Use high airways: yes

Route

CYZH YPE NCA12 KITAR PAGY

ID Type Via Altitude (ft/m) Position (lat/lon) Dist (leg/tot) Name
O CYZH APT - 0 / 0 55.29330 / -114.77831 - / 0 nm SLAVE LAKE
YPE VOR - 34,000 / 10,363 56.20692 / -117.51181 107 / 107 nm PEACE RIVER VOR-DME
IGSEL FIX NCA12 (AWY-HI) 34,000 / 10,363 58.22778 / -125.00000 271 / 379 nm
KITAR FIX NCA12 (AWY-HI) 28,000 / 8,534 60.00000 / -135.00000 325 / 705 nm
O PAGY APT - 0 / 0 59.46006 / -135.31566 33 / 738 nm SKAGWAY

Altitude Profile

Advertisement - Login to hide

Weather


0- 5 10 15 20 25 30 35+ Temperature / °C

Clouds and Precipitation
Forecast for 2021-03-22 12:00 UTC. Updated 2 months ago

Ground ~20,000 ft ~40,000 ft Winds

CYZH

Details ICAO CYZH (YZH)
Name SLAVE LAKE
Region Canada
Timezone America/Edmonton (UTC-6.0)
Stats Elevation 1,912 ft / 583 m (AMSL)
Location 55.293300° -114.778000°
Runways 1
Magnetic Variation 14.659° E

METAR

CYZH 140000Z AUTO 28008KT 9SM FEW100 SCT130 14/05 A3006 RMK SLP195 DENSITY ALT 2200FT

Decode

TAF

TAF CYZH 140038Z 1401/1413 28006KT P6SM FEW100 SCT140 RMK FCST BASED ON AUTO OBS. NXT FCST BY 140700Z

Decode

Departure Runways

ID Width Length Bearing (true/mag) Surface Threshold Overrun Markings Lighting
10 100 ft / 30 m 5,535 ft / 1,687 m 114.74° / 100.08° ASPHALT 0 ft / 0 m 0 ft / 0 m APP EDGE THRESHOLD
28 100 ft / 30 m 5,535 ft / 1,687 m 294.76° / 280.10° ASPHALT 557 ft / 170 m 0 ft / 0 m APP EDGE THRESHOLD

PAGY

Details ICAO PAGY (SGY)
Name SKAGWAY
Region USA (Alaska)
Timezone America/Juneau (UTC-8.0)
Stats Elevation 44 ft / 13 m (AMSL)
Location 59.460100° -135.316000°
Runways 1
Magnetic Variation 18.281° E

METAR

PAGY 132353Z AUTO 21014KT 10SM -RA FEW030 SCT035 OVC043 07/00 A3025 RMK AO2 SLP242 P0001 60002 T00720000 10089 20072 58002 TSNO

Decode

TAF

PAGY 132321Z 1400/1424 21013KT P6SM -RA OVC040 FM140300 21010KT P6SM -RA OVC025 FM140700 21009KT P6SM -RA OVC015 FM141800 21010G18KT P6SM VCSH FEW015 OVC025 AMD LTD TO CLD VIS AND WIND

Decode

Destination Runways

ID Width Length Bearing (true/mag) Surface Threshold Overrun Markings Lighting
02 75 ft / 23 m 3,542 ft / 1,080 m 43.94° / 25.66° ASPHALT 0 ft / 0 m 299 ft / 91 m APP EDGE THRESHOLD REIL-OMNI
20 75 ft / 23 m 3,542 ft / 1,080 m 223.95° / 205.67° ASPHALT 0 ft / 0 m 299 ft / 91 m APP EDGE THRESHOLD REIL-OMNI